RJTJ(METAR)
08/15 05:00
METAR RJTJ 142000Z VRB02KT 9000 FEW012 26/24 Q1008 RMK 1CU012 A2977=
戻る
トップページへ戻る
IMOC Co,.Ltd.